sensor_id;sensor_type;location;lat;lon;timestamp;P1;durP1;ratioP1;P2;durP2;ratioP2
54452;SDS011;40363;52.270;10.546;2023-08-24T00:02:11;4.93;;;2.00;;
54452;SDS011;40363;52.270;10.546;2023-08-24T00:04:37;2.47;;;2.10;;
54452;SDS011;40363;52.270;10.546;2023-08-24T00:07:04;5.68;;;1.98;;
54452;SDS011;40363;52.270;10.546;2023-08-24T00:09:31;5.10;;;1.98;;
54452;SDS011;40363;52.270;10.546;2023-08-24T00:11:57;2.78;;;2.03;;
54452;SDS011;40363;52.270;10.546;2023-08-24T00:14:25;5.70;;;1.98;;
54452;SDS011;40363;52.270;10.546;2023-08-24T00:16:52;2.88;;;2.25;;
54452;SDS011;40363;52.270;10.546;2023-08-24T00:19:19;8.88;;;2.65;;
54452;SDS011;40363;52.270;10.546;2023-08-24T00:21:46;4.97;;;2.63;;
54452;SDS011;40363;52.270;10.546;2023-08-24T00:24:23;4.28;;;2.25;;
54452;SDS011;40363;52.270;10.546;2023-08-24T00:27:07;2.25;;;1.85;;
54452;SDS011;40363;52.270;10.546;2023-08-24T00:29:35;9.50;;;2.67;;
54452;SDS011;40363;52.270;10.546;2023-08-24T00:32:03;3.88;;;2.03;;
54452;SDS011;40363;52.270;10.546;2023-08-24T00:34:30;4.68;;;2.55;;
54452;SDS011;40363;52.270;10.546;2023-08-24T00:36:56;4.50;;;2.20;;
54452;SDS011;40363;52.270;10.546;2023-08-24T00:39:23;3.28;;;2.33;;
54452;SDS011;40363;52.270;10.546;2023-08-24T00:41:49;4.85;;;1.92;;
54452;SDS011;40363;52.270;10.546;2023-08-24T00:44:16;3.72;;;2.30;;
54452;SDS011;40363;52.270;10.546;2023-08-24T00:46:44;6.18;;;2.28;;
54452;SDS011;40363;52.270;10.546;2023-08-24T00:49:10;6.00;;;2.58;;
54452;SDS011;40363;52.270;10.546;2023-08-24T00:51:37;3.95;;;2.05;;
54452;SDS011;40363;52.270;10.546;2023-08-24T00:54:04;3.58;;;2.60;;
54452;SDS011;40363;52.270;10.546;2023-08-24T00:56:31;4.55;;;2.22;;
54452;SDS011;40363;52.270;10.546;2023-08-24T00:58:58;6.07;;;2.50;;
54452;SDS011;40363;52.270;10.546;2023-08-24T01:01:25;5.78;;;2.70;;
54452;SDS011;40363;52.270;10.546;2023-08-24T01:03:53;5.28;;;2.10;;
54452;SDS011;40363;52.270;10.546;2023-08-24T01:06:19;4.63;;;2.17;;
54452;SDS011;40363;52.270;10.546;2023-08-24T01:08:46;4.10;;;2.35;;
54452;SDS011;40363;52.270;10.546;2023-08-24T01:11:14;3.58;;;1.83;;
54452;SDS011;40363;52.270;10.546;2023-08-24T01:13:57;6.90;;;2.30;;
54452;SDS011;40363;52.270;10.546;2023-08-24T01:16:29;3.03;;;2.13;;
54452;SDS011;40363;52.270;10.546;2023-08-24T01:19:03;3.50;;;2.53;;
54452;SDS011;40363;52.270;10.546;2023-08-24T01:21:33;6.15;;;2.15;;
54452;SDS011;40363;52.270;10.546;2023-08-24T01:24:02;4.75;;;2.33;;
54452;SDS011;40363;52.270;10.546;2023-08-24T01:26:36;3.58;;;2.00;;
54452;SDS011;40363;52.270;10.546;2023-08-24T01:29:04;3.00;;;2.05;;
54452;SDS011;40363;52.270;10.546;2023-08-24T01:31:32;3.53;;;2.63;;
54452;SDS011;40363;52.270;10.546;2023-08-24T01:33:58;3.13;;;2.17;;
54452;SDS011;40363;52.270;10.546;2023-08-24T01:36:26;3.65;;;1.75;;
54452;SDS011;40363;52.270;10.546;2023-08-24T01:38:54;4.95;;;2.55;;
54452;SDS011;40363;52.270;10.546;2023-08-24T01:41:31;4.18;;;2.30;;
54452;SDS011;40363;52.270;10.546;2023-08-24T01:44:03;2.72;;;1.83;;
54452;SDS011;40363;52.270;10.546;2023-08-24T01:46:32;2.08;;;1.80;;
54452;SDS011;40363;52.270;10.546;2023-08-24T01:49:00;5.60;;;1.90;;
54452;SDS011;40363;52.270;10.546;2023-08-24T01:51:28;2.60;;;2.20;;
54452;SDS011;40363;52.270;10.546;2023-08-24T01:53:56;3.25;;;1.70;;
54452;SDS011;40363;52.270;10.546;2023-08-24T01:56:23;4.28;;;2.33;;
54452;SDS011;40363;52.270;10.546;2023-08-24T01:58:51;5.35;;;2.47;;
54452;SDS011;40363;52.270;10.546;2023-08-24T02:01:18;2.63;;;2.05;;
54452;SDS011;40363;52.270;10.546;2023-08-24T02:03:44;5.00;;;2.50;;
54452;SDS011;40363;52.270;10.546;2023-08-24T02:06:11;2.63;;;1.92;;
54452;SDS011;40363;52.270;10.546;2023-08-24T02:08:38;4.35;;;2.15;;
54452;SDS011;40363;52.270;10.546;2023-08-24T02:11:04;3.78;;;2.10;;
54452;SDS011;40363;52.270;10.546;2023-08-24T02:13:32;5.72;;;2.60;;
54452;SDS011;40363;52.270;10.546;2023-08-24T02:16:03;3.35;;;2.00;;
54452;SDS011;40363;52.270;10.546;2023-08-24T02:18:31;2.90;;;2.15;;
54452;SDS011;40363;52.270;10.546;2023-08-24T02:20:58;5.10;;;2.47;;
54452;SDS011;40363;52.270;10.546;2023-08-24T02:23:27;3.42;;;2.17;;
54452;SDS011;40363;52.270;10.546;2023-08-24T02:25:55;7.90;;;3.45;;
54452;SDS011;40363;52.270;10.546;2023-08-24T02:28:22;3.95;;;2.85;;
54452;SDS011;40363;52.270;10.546;2023-08-24T02:30:49;3.40;;;2.53;;
54452;SDS011;40363;52.270;10.546;2023-08-24T02:33:17;4.50;;;2.17;;
54452;SDS011;40363;52.270;10.546;2023-08-24T02:35:44;2.70;;;2.10;;
54452;SDS011;40363;52.270;10.546;2023-08-24T02:38:13;4.28;;;2.63;;
54452;SDS011;40363;52.270;10.546;2023-08-24T02:40:40;4.43;;;2.75;;
54452;SDS011;40363;52.270;10.546;2023-08-24T02:43:06;5.28;;;2.55;;
54452;SDS011;40363;52.270;10.546;2023-08-24T02:45:33;5.20;;;2.70;;
54452;SDS011;40363;52.270;10.546;2023-08-24T02:48:00;4.00;;;2.42;;
54452;SDS011;40363;52.270;10.546;2023-08-24T02:50:28;3.42;;;2.53;;
54452;SDS011;40363;52.270;10.546;2023-08-24T02:52:55;4.68;;;2.42;;
54452;SDS011;40363;52.270;10.546;2023-08-24T02:55:23;3.17;;;2.53;;
54452;SDS011;40363;52.270;10.546;2023-08-24T02:57:49;4.05;;;2.80;;
54452;SDS011;40363;52.270;10.546;2023-08-24T03:00:16;6.57;;;3.15;;
54452;SDS011;40363;52.270;10.546;2023-08-24T03:02:43;9.43;;;2.55;;
54452;SDS011;40363;52.270;10.546;2023-08-24T03:05:10;4.18;;;2.83;;
54452;SDS011;40363;52.270;10.546;2023-08-24T03:07:38;4.93;;;2.90;;
54452;SDS011;40363;52.270;10.546;2023-08-24T03:10:05;8.02;;;3.25;;
54452;SDS011;40363;52.270;10.546;2023-08-24T03:12:32;3.38;;;2.65;;
54452;SDS011;40363;52.270;10.546;2023-08-24T03:14:59;4.25;;;2.88;;
54452;SDS011;40363;52.270;10.546;2023-08-24T03:17:25;3.60;;;2.63;;
54452;SDS011;40363;52.270;10.546;2023-08-24T03:19:52;5.13;;;2.80;;
54452;SDS011;40363;52.270;10.546;2023-08-24T03:22:18;3.83;;;2.95;;
54452;SDS011;40363;52.270;10.546;2023-08-24T03:24:46;3.42;;;2.90;;
54452;SDS011;40363;52.270;10.546;2023-08-24T03:27:13;3.85;;;2.50;;
54452;SDS011;40363;52.270;10.546;2023-08-24T03:29:39;3.42;;;2.75;;
54452;SDS011;40363;52.270;10.546;2023-08-24T03:32:06;3.38;;;2.60;;
54452;SDS011;40363;52.270;10.546;2023-08-24T03:34:33;6.63;;;3.00;;
54452;SDS011;40363;52.270;10.546;2023-08-24T03:36:59;4.30;;;2.80;;
54452;SDS011;40363;52.270;10.546;2023-08-24T03:39:26;5.13;;;3.33;;
54452;SDS011;40363;52.270;10.546;2023-08-24T03:41:54;3.47;;;3.15;;
54452;SDS011;40363;52.270;10.546;2023-08-24T03:44:20;4.38;;;2.97;;
54452;SDS011;40363;52.270;10.546;2023-08-24T03:46:47;5.13;;;2.58;;
54452;SDS011;40363;52.270;10.546;2023-08-24T03:49:14;5.13;;;2.83;;
54452;SDS011;40363;52.270;10.546;2023-08-24T03:51:40;3.63;;;2.85;;
54452;SDS011;40363;52.270;10.546;2023-08-24T03:54:07;4.20;;;2.83;;
54452;SDS011;40363;52.270;10.546;2023-08-24T03:56:33;5.55;;;3.03;;
54452;SDS011;40363;52.270;10.546;2023-08-24T03:59:02;7.25;;;3.65;;
54452;SDS011;40363;52.270;10.546;2023-08-24T04:01:28;4.15;;;3.08;;
54452;SDS011;40363;52.270;10.546;2023-08-24T04:03:55;6.55;;;2.72;;
54452;SDS011;40363;52.270;10.546;2023-08-24T04:06:22;3.55;;;2.75;;
54452;SDS011;40363;52.270;10.546;2023-08-24T04:08:49;3.80;;;2.92;;
54452;SDS011;40363;52.270;10.546;2023-08-24T04:11:15;4.93;;;3.28;;
54452;SDS011;40363;52.270;10.546;2023-08-24T04:13:42;6.35;;;3.40;;
54452;SDS011;40363;52.270;10.546;2023-08-24T04:16:10;7.90;;;3.28;;
54452;SDS011;40363;52.270;10.546;2023-08-24T04:18:37;6.43;;;3.30;;
54452;SDS011;40363;52.270;10.546;2023-08-24T04:21:05;6.82;;;3.40;;
54452;SDS011;40363;52.270;10.546;2023-08-24T04:23:32;7.63;;;3.70;;
54452;SDS011;40363;52.270;10.546;2023-08-24T04:25:58;6.82;;;3.65;;
54452;SDS011;40363;52.270;10.546;2023-08-24T04:28:25;5.10;;;3.63;;
54452;SDS011;40363;52.270;10.546;2023-08-24T04:30:52;4.15;;;3.75;;
54452;SDS011;40363;52.270;10.546;2023-08-24T04:33:22;4.30;;;3.25;;
54452;SDS011;40363;52.270;10.546;2023-08-24T04:35:49;7.60;;;3.25;;
54452;SDS011;40363;52.270;10.546;2023-08-24T04:38:16;10.15;;;3.38;;
54452;SDS011;40363;52.270;10.546;2023-08-24T04:40:50;5.95;;;2.95;;
54452;SDS011;40363;52.270;10.546;2023-08-24T04:43:17;7.85;;;3.58;;
54452;SDS011;40363;52.270;10.546;2023-08-24T04:45:45;5.95;;;3.03;;
54452;SDS011;40363;52.270;10.546;2023-08-24T04:48:12;8.73;;;3.42;;
54452;SDS011;40363;52.270;10.546;2023-08-24T04:50:41;5.00;;;3.65;;
54452;SDS011;40363;52.270;10.546;2023-08-24T04:53:09;6.82;;;3.28;;
54452;SDS011;40363;52.270;10.546;2023-08-24T04:55:36;3.55;;;2.90;;
54452;SDS011;40363;52.270;10.546;2023-08-24T04:58:03;4.78;;;3.50;;
54452;SDS011;40363;52.270;10.546;2023-08-24T05:00:29;4.30;;;3.17;;
54452;SDS011;40363;52.270;10.546;2023-08-24T05:02:58;5.18;;;3.10;;
54452;SDS011;40363;52.270;10.546;2023-08-24T05:05:24;4.78;;;2.90;;
54452;SDS011;40363;52.270;10.546;2023-08-24T05:07:53;7.20;;;3.17;;
54452;SDS011;40363;52.270;10.546;2023-08-24T05:11:11;6.13;;;2.95;;
54452;SDS011;40363;52.270;10.546;2023-08-24T05:13:26;4.15;;;3.00;;
54452;SDS011;40363;52.270;10.546;2023-08-24T05:15:52;4.80;;;3.85;;
54452;SDS011;40363;52.270;10.546;2023-08-24T05:22:02;4.78;;;3.08;;
54452;SDS011;40363;52.270;10.546;2023-08-24T05:24:30;9.18;;;3.92;;
54452;SDS011;40363;52.270;10.546;2023-08-24T05:26:57;7.75;;;3.50;;
54452;SDS011;40363;52.270;10.546;2023-08-24T05:29:23;5.25;;;3.30;;
54452;SDS011;40363;52.270;10.546;2023-08-24T05:31:50;9.13;;;4.65;;
54452;SDS011;40363;52.270;10.546;2023-08-24T05:34:16;5.45;;;3.78;;
54452;SDS011;40363;52.270;10.546;2023-08-24T05:36:43;6.55;;;4.00;;
54452;SDS011;40363;52.270;10.546;2023-08-24T05:39:10;4.90;;;3.70;;
54452;SDS011;40363;52.270;10.546;2023-08-24T05:41:38;6.65;;;3.47;;
54452;SDS011;40363;52.270;10.546;2023-08-24T05:44:05;5.40;;;3.15;;
54452;SDS011;40363;52.270;10.546;2023-08-24T05:46:31;6.57;;;3.40;;
54452;SDS011;40363;52.270;10.546;2023-08-24T05:48:58;6.95;;;3.13;;
54452;SDS011;40363;52.270;10.546;2023-08-24T05:51:25;6.47;;;3.33;;
54452;SDS011;40363;52.270;10.546;2023-08-24T05:53:52;5.28;;;2.97;;
54452;SDS011;40363;52.270;10.546;2023-08-24T05:56:20;5.88;;;3.35;;
54452;SDS011;40363;52.270;10.546;2023-08-24T05:58:48;5.88;;;2.72;;
54452;SDS011;40363;52.270;10.546;2023-08-24T06:01:15;5.20;;;3.22;;
54452;SDS011;40363;52.270;10.546;2023-08-24T06:03:42;6.05;;;3.17;;
54452;SDS011;40363;52.270;10.546;2023-08-24T06:06:08;16.70;;;5.72;;
54452;SDS011;40363;52.270;10.546;2023-08-24T06:08:35;6.75;;;3.17;;
54452;SDS011;40363;52.270;10.546;2023-08-24T06:11:02;6.50;;;3.33;;
54452;SDS011;40363;52.270;10.546;2023-08-24T06:13:28;6.50;;;3.10;;
54452;SDS011;40363;52.270;10.546;2023-08-24T06:15:56;4.05;;;2.53;;
54452;SDS011;40363;52.270;10.546;2023-08-24T06:18:23;9.43;;;3.53;;
54452;SDS011;40363;52.270;10.546;2023-08-24T06:20:49;6.55;;;3.10;;
54452;SDS011;40363;52.270;10.546;2023-08-24T06:23:16;7.72;;;3.50;;
54452;SDS011;40363;52.270;10.546;2023-08-24T06:25:43;4.03;;;2.97;;
54452;SDS011;40363;52.270;10.546;2023-08-24T06:28:10;5.95;;;3.05;;
54452;SDS011;40363;52.270;10.546;2023-08-24T06:30:37;7.68;;;3.33;;
54452;SDS011;40363;52.270;10.546;2023-08-24T06:33:06;7.07;;;3.25;;
54452;SDS011;40363;52.270;10.546;2023-08-24T06:35:35;6.95;;;3.25;;
54452;SDS011;40363;52.270;10.546;2023-08-24T06:38:03;4.20;;;2.90;;
54452;SDS011;40363;52.270;10.546;2023-08-24T06:40:29;4.88;;;3.28;;
54452;SDS011;40363;52.270;10.546;2023-08-24T06:42:56;8.15;;;3.38;;
54452;SDS011;40363;52.270;10.546;2023-08-24T06:45:23;4.35;;;2.80;;
54452;SDS011;40363;52.270;10.546;2023-08-24T06:47:50;5.85;;;3.15;;
54452;SDS011;40363;52.270;10.546;2023-08-24T06:50:19;7.32;;;3.15;;
54452;SDS011;40363;52.270;10.546;2023-08-24T06:52:46;5.53;;;2.78;;
54452;SDS011;40363;52.270;10.546;2023-08-24T06:55:12;6.47;;;2.90;;
54452;SDS011;40363;52.270;10.546;2023-08-24T06:57:39;6.03;;;3.10;;
54452;SDS011;40363;52.270;10.546;2023-08-24T07:00:07;5.13;;;2.90;;
54452;SDS011;40363;52.270;10.546;2023-08-24T07:02:34;5.82;;;2.92;;
54452;SDS011;40363;52.270;10.546;2023-08-24T07:05:01;5.30;;;2.95;;
54452;SDS011;40363;52.270;10.546;2023-08-24T07:07:32;5.72;;;3.05;;
54452;SDS011;40363;52.270;10.546;2023-08-24T07:09:58;4.80;;;3.10;;
54452;SDS011;40363;52.270;10.546;2023-08-24T07:12:25;6.53;;;4.20;;
54452;SDS011;40363;52.270;10.546;2023-08-24T07:14:51;9.88;;;3.60;;
54452;SDS011;40363;52.270;10.546;2023-08-24T07:17:18;5.80;;;3.85;;
54452;SDS011;40363;52.270;10.546;2023-08-24T07:19:45;9.75;;;3.72;;
54452;SDS011;40363;52.270;10.546;2023-08-24T07:22:11;6.28;;;3.55;;
54452;SDS011;40363;52.270;10.546;2023-08-24T07:24:40;6.80;;;4.43;;
54452;SDS011;40363;52.270;10.546;2023-08-24T07:27:06;7.80;;;4.32;;
54452;SDS011;40363;52.270;10.546;2023-08-24T07:29:33;9.55;;;4.90;;
54452;SDS011;40363;52.270;10.546;2023-08-24T07:32:00;4.97;;;3.85;;
54452;SDS011;40363;52.270;10.546;2023-08-24T07:34:28;12.40;;;4.72;;
54452;SDS011;40363;52.270;10.546;2023-08-24T07:36:54;11.80;;;4.45;;
54452;SDS011;40363;52.270;10.546;2023-08-24T07:39:21;11.82;;;4.70;;
54452;SDS011;40363;52.270;10.546;2023-08-24T07:41:49;8.20;;;4.45;;
54452;SDS011;40363;52.270;10.546;2023-08-24T07:44:16;10.38;;;4.55;;
54452;SDS011;40363;52.270;10.546;2023-08-24T07:46:42;11.02;;;4.90;;
54452;SDS011;40363;52.270;10.546;2023-08-24T07:49:09;10.63;;;5.35;;
54452;SDS011;40363;52.270;10.546;2023-08-24T07:51:36;7.85;;;4.63;;
54452;SDS011;40363;52.270;10.546;2023-08-24T07:54:02;6.97;;;4.93;;
54452;SDS011;40363;52.270;10.546;2023-08-24T07:56:31;10.60;;;5.28;;
54452;SDS011;40363;52.270;10.546;2023-08-24T07:59:00;9.80;;;4.18;;
54452;SDS011;40363;52.270;10.546;2023-08-24T08:01:26;13.68;;;5.00;;
54452;SDS011;40363;52.270;10.546;2023-08-24T08:03:53;11.40;;;4.97;;
54452;SDS011;40363;52.270;10.546;2023-08-24T08:06:20;7.13;;;4.30;;
54452;SDS011;40363;52.270;10.546;2023-08-24T08:08:49;8.52;;;4.35;;
54452;SDS011;40363;52.270;10.546;2023-08-24T08:11:16;9.48;;;5.10;;
54452;SDS011;40363;52.270;10.546;2023-08-24T08:13:43;13.02;;;4.60;;
54452;SDS011;40363;52.270;10.546;2023-08-24T08:16:12;8.63;;;4.63;;
54452;SDS011;40363;52.270;10.546;2023-08-24T08:18:38;9.05;;;4.60;;
54452;SDS011;40363;52.270;10.546;2023-08-24T08:21:08;6.93;;;4.63;;
54452;SDS011;40363;52.270;10.546;2023-08-24T08:23:35;9.18;;;4.63;;
54452;SDS011;40363;52.270;10.546;2023-08-24T08:26:02;7.38;;;5.22;;
54452;SDS011;40363;52.270;10.546;2023-08-24T08:28:29;12.13;;;4.72;;
54452;SDS011;40363;52.270;10.546;2023-08-24T08:30:58;8.43;;;4.60;;
54452;SDS011;40363;52.270;10.546;2023-08-24T08:33:26;9.13;;;5.57;;
54452;SDS011;40363;52.270;10.546;2023-08-24T08:35:53;8.27;;;5.05;;
54452;SDS011;40363;52.270;10.546;2023-08-24T08:38:19;7.07;;;5.38;;
54452;SDS011;40363;52.270;10.546;2023-08-24T08:40:47;10.90;;;5.00;;
54452;SDS011;40363;52.270;10.546;2023-08-24T08:43:16;12.13;;;5.15;;
54452;SDS011;40363;52.270;10.546;2023-08-24T08:45:43;10.73;;;4.60;;
54452;SDS011;40363;52.270;10.546;2023-08-24T08:48:09;10.32;;;5.68;;
54452;SDS011;40363;52.270;10.546;2023-08-24T08:50:39;9.40;;;5.47;;
54452;SDS011;40363;52.270;10.546;2023-08-24T08:53:06;11.48;;;4.50;;
54452;SDS011;40363;52.270;10.546;2023-08-24T08:55:33;11.68;;;4.53;;
54452;SDS011;40363;52.270;10.546;2023-08-24T08:58:00;9.32;;;4.70;;
54452;SDS011;40363;52.270;10.546;2023-08-24T09:00:29;6.60;;;3.72;;
54452;SDS011;40363;52.270;10.546;2023-08-24T09:02:56;5.57;;;4.30;;
54452;SDS011;40363;52.270;10.546;2023-08-24T09:05:24;9.23;;;5.05;;
54452;SDS011;40363;52.270;10.546;2023-08-24T09:07:54;5.38;;;3.88;;
54452;SDS011;40363;52.270;10.546;2023-08-24T09:10:21;12.25;;;4.63;;
54452;SDS011;40363;52.270;10.546;2023-08-24T09:12:48;7.63;;;4.10;;
54452;SDS011;40363;52.270;10.546;2023-08-24T09:15:15;6.43;;;4.10;;
54452;SDS011;40363;52.270;10.546;2023-08-24T09:17:51;4.25;;;3.50;;
54452;SDS011;40363;52.270;10.546;2023-08-24T09:20:18;7.60;;;3.60;;
54452;SDS011;40363;52.270;10.546;2023-08-24T09:22:44;6.93;;;3.58;;
54452;SDS011;40363;52.270;10.546;2023-08-24T09:25:12;4.68;;;3.50;;
54452;SDS011;40363;52.270;10.546;2023-08-24T09:27:39;6.20;;;3.75;;
54452;SDS011;40363;52.270;10.546;2023-08-24T09:30:07;6.45;;;4.13;;
54452;SDS011;40363;52.270;10.546;2023-08-24T09:32:35;10.85;;;3.67;;
54452;SDS011;40363;52.270;10.546;2023-08-24T09:35:02;5.00;;;3.85;;
54452;SDS011;40363;52.270;10.546;2023-08-24T09:37:31;7.13;;;4.00;;
54452;SDS011;40363;52.270;10.546;2023-08-24T09:40:00;9.30;;;3.45;;
54452;SDS011;40363;52.270;10.546;2023-08-24T09:42:33;4.25;;;3.25;;
54452;SDS011;40363;52.270;10.546;2023-08-24T09:45:04;7.55;;;3.05;;
54452;SDS011;40363;52.270;10.546;2023-08-24T09:47:31;8.63;;;3.20;;
54452;SDS011;40363;52.270;10.546;2023-08-24T09:49:59;4.45;;;3.00;;
54452;SDS011;40363;52.270;10.546;2023-08-24T09:52:25;3.70;;;2.92;;
54452;SDS011;40363;52.270;10.546;2023-08-24T09:54:57;4.85;;;3.45;;
54452;SDS011;40363;52.270;10.546;2023-08-24T09:57:29;7.32;;;3.42;;
54452;SDS011;40363;52.270;10.546;2023-08-24T09:59:58;4.63;;;3.40;;
54452;SDS011;40363;52.270;10.546;2023-08-24T10:02:25;7.97;;;3.63;;
54452;SDS011;40363;52.270;10.546;2023-08-24T10:04:57;6.28;;;3.50;;
54452;SDS011;40363;52.270;10.546;2023-08-24T10:07:25;4.43;;;3.00;;
54452;SDS011;40363;52.270;10.546;2023-08-24T10:09:52;5.80;;;3.67;;
54452;SDS011;40363;52.270;10.546;2023-08-24T10:12:24;4.63;;;2.97;;
54452;SDS011;40363;52.270;10.546;2023-08-24T10:14:56;4.95;;;3.08;;
54452;SDS011;40363;52.270;10.546;2023-08-24T10:17:28;5.32;;;2.83;;
54452;SDS011;40363;52.270;10.546;2023-08-24T10:19:55;3.63;;;3.25;;
54452;SDS011;40363;52.270;10.546;2023-08-24T10:22:25;5.70;;;3.25;;
54452;SDS011;40363;52.270;10.546;2023-08-24T10:24:54;9.40;;;3.40;;
54452;SDS011;40363;52.270;10.546;2023-08-24T10:27:21;5.78;;;3.40;;
54452;SDS011;40363;52.270;10.546;2023-08-24T10:29:49;4.38;;;2.67;;
54452;SDS011;40363;52.270;10.546;2023-08-24T10:32:17;4.50;;;2.80;;
54452;SDS011;40363;52.270;10.546;2023-08-24T10:34:45;6.28;;;2.65;;
54452;SDS011;40363;52.270;10.546;2023-08-24T10:37:12;7.65;;;2.63;;
54452;SDS011;40363;52.270;10.546;2023-08-24T10:39:43;5.97;;;3.47;;
54452;SDS011;40363;52.270;10.546;2023-08-24T10:42:11;5.45;;;2.90;;
54452;SDS011;40363;52.270;10.546;2023-08-24T10:44:38;4.05;;;2.80;;
54452;SDS011;40363;52.270;10.546;2023-08-24T10:47:13;3.55;;;2.83;;
54452;SDS011;40363;52.270;10.546;2023-08-24T10:52:18;3.72;;;3.15;;
54452;SDS011;40363;52.270;10.546;2023-08-24T10:54:46;6.38;;;3.58;;
54452;SDS011;40363;52.270;10.546;2023-08-24T10:57:17;5.60;;;3.20;;
54452;SDS011;40363;52.270;10.546;2023-08-24T10:59:47;4.00;;;2.80;;
54452;SDS011;40363;52.270;10.546;2023-08-24T11:02:24;7.60;;;2.83;;
54452;SDS011;40363;52.270;10.546;2023-08-24T11:05:05;5.75;;;3.17;;
54452;SDS011;40363;52.270;10.546;2023-08-24T11:07:32;4.95;;;2.83;;
54452;SDS011;40363;52.270;10.546;2023-08-24T11:09:59;7.47;;;2.72;;
54452;SDS011;40363;52.270;10.546;2023-08-24T11:15:37;3.97;;;2.28;;
54452;SDS011;40363;52.270;10.546;2023-08-24T11:18:12;8.23;;;3.10;;
54452;SDS011;40363;52.270;10.546;2023-08-24T11:20:48;4.78;;;2.22;;
54452;SDS011;40363;52.270;10.546;2023-08-24T11:23:15;5.07;;;2.65;;
54452;SDS011;40363;52.270;10.546;2023-08-24T11:25:43;4.00;;;2.42;;
54452;SDS011;40363;52.270;10.546;2023-08-24T11:28:10;5.65;;;2.97;;
54452;SDS011;40363;52.270;10.546;2023-08-24T11:30:37;5.25;;;2.05;;
54452;SDS011;40363;52.270;10.546;2023-08-24T11:33:03;3.60;;;2.15;;
54452;SDS011;40363;52.270;10.546;2023-08-24T11:35:34;3.78;;;2.25;;
54452;SDS011;40363;52.270;10.546;2023-08-24T11:38:03;4.50;;;2.83;;
54452;SDS011;40363;52.270;10.546;2023-08-24T11:40:30;4.88;;;2.17;;
54452;SDS011;40363;52.270;10.546;2023-08-24T11:42:56;4.10;;;2.20;;
54452;SDS011;40363;52.270;10.546;2023-08-24T11:45:23;4.75;;;2.40;;
54452;SDS011;40363;52.270;10.546;2023-08-24T11:47:51;3.58;;;2.60;;
54452;SDS011;40363;52.270;10.546;2023-08-24T11:50:18;4.95;;;2.45;;
54452;SDS011;40363;52.270;10.546;2023-08-24T11:52:45;4.97;;;2.33;;
54452;SDS011;40363;52.270;10.546;2023-08-24T11:55:13;7.53;;;2.67;;
54452;SDS011;40363;52.270;10.546;2023-08-24T11:57:41;5.55;;;2.50;;
54452;SDS011;40363;52.270;10.546;2023-08-24T12:00:08;4.10;;;2.03;;
54452;SDS011;40363;52.270;10.546;2023-08-24T12:02:38;3.95;;;2.70;;
54452;SDS011;40363;52.270;10.546;2023-08-24T12:05:06;8.93;;;2.50;;
54452;SDS011;40363;52.270;10.546;2023-08-24T12:07:33;3.10;;;2.45;;
54452;SDS011;40363;52.270;10.546;2023-08-24T12:10:00;4.03;;;2.60;;
54452;SDS011;40363;52.270;10.546;2023-08-24T12:12:28;3.80;;;2.33;;
54452;SDS011;40363;52.270;10.546;2023-08-24T12:14:55;6.38;;;2.70;;
54452;SDS011;40363;52.270;10.546;2023-08-24T12:17:22;4.43;;;2.45;;
54452;SDS011;40363;52.270;10.546;2023-08-24T12:19:56;3.63;;;2.70;;
54452;SDS011;40363;52.270;10.546;2023-08-24T12:24:50;7.65;;;2.75;;
54452;SDS011;40363;52.270;10.546;2023-08-24T12:27:17;4.45;;;2.50;;
54452;SDS011;40363;52.270;10.546;2023-08-24T12:29:46;5.63;;;2.60;;
54452;SDS011;40363;52.270;10.546;2023-08-24T12:32:12;4.20;;;1.70;;
54452;SDS011;40363;52.270;10.546;2023-08-24T12:34:41;5.22;;;2.30;;
54452;SDS011;40363;52.270;10.546;2023-08-24T12:37:08;3.42;;;2.60;;
54452;SDS011;40363;52.270;10.546;2023-08-24T12:39:35;5.35;;;2.55;;
54452;SDS011;40363;52.270;10.546;2023-08-24T12:42:03;4.35;;;2.67;;
54452;SDS011;40363;52.270;10.546;2023-08-24T12:44:30;4.07;;;2.97;;
54452;SDS011;40363;52.270;10.546;2023-08-24T12:46:58;5.43;;;2.38;;
54452;SDS011;40363;52.270;10.546;2023-08-24T12:49:25;6.25;;;2.80;;
54452;SDS011;40363;52.270;10.546;2023-08-24T12:51:51;2.50;;;2.00;;
54452;SDS011;40363;52.270;10.546;2023-08-24T12:54:18;4.95;;;2.67;;
54452;SDS011;40363;52.270;10.546;2023-08-24T12:56:45;7.82;;;2.30;;
54452;SDS011;40363;52.270;10.546;2023-08-24T12:59:11;4.45;;;2.42;;
54452;SDS011;40363;52.270;10.546;2023-08-24T13:01:38;3.72;;;2.30;;
54452;SDS011;40363;52.270;10.546;2023-08-24T13:04:06;4.47;;;2.17;;
54452;SDS011;40363;52.270;10.546;2023-08-24T13:06:32;3.83;;;2.42;;
54452;SDS011;40363;52.270;10.546;2023-08-24T13:08:59;3.58;;;2.13;;
54452;SDS011;40363;52.270;10.546;2023-08-24T13:11:26;4.10;;;2.25;;
54452;SDS011;40363;52.270;10.546;2023-08-24T13:13:52;5.97;;;2.22;;
54452;SDS011;40363;52.270;10.546;2023-08-24T13:16:19;4.25;;;2.47;;
54452;SDS011;40363;52.270;10.546;2023-08-24T13:18:45;3.05;;;2.25;;
54452;SDS011;40363;52.270;10.546;2023-08-24T13:21:14;4.13;;;2.53;;
54452;SDS011;40363;52.270;10.546;2023-08-24T13:23:40;6.88;;;2.63;;
54452;SDS011;40363;52.270;10.546;2023-08-24T13:26:12;4.40;;;2.55;;
54452;SDS011;40363;52.270;10.546;2023-08-24T13:28:43;3.63;;;2.10;;
54452;SDS011;40363;52.270;10.546;2023-08-24T13:31:09;3.55;;;2.42;;
54452;SDS011;40363;52.270;10.546;2023-08-24T13:33:36;3.55;;;2.13;;
54452;SDS011;40363;52.270;10.546;2023-08-24T13:36:03;3.38;;;2.17;;
54452;SDS011;40363;52.270;10.546;2023-08-24T13:38:31;4.60;;;1.90;;
54452;SDS011;40363;52.270;10.546;2023-08-24T13:40:58;5.72;;;2.33;;
54452;SDS011;40363;52.270;10.546;2023-08-24T13:43:24;3.78;;;1.88;;
54452;SDS011;40363;52.270;10.546;2023-08-24T13:45:51;4.80;;;2.15;;
54452;SDS011;40363;52.270;10.546;2023-08-24T13:48:17;3.42;;;1.90;;
54452;SDS011;40363;52.270;10.546;2023-08-24T13:50:49;2.13;;;1.70;;
54452;SDS011;40363;52.270;10.546;2023-08-24T13:53:17;4.97;;;2.03;;
54452;SDS011;40363;52.270;10.546;2023-08-24T13:55:45;5.25;;;2.33;;
54452;SDS011;40363;52.270;10.546;2023-08-24T13:58:11;4.90;;;2.10;;
54452;SDS011;40363;52.270;10.546;2023-08-24T14:00:38;5.45;;;2.45;;
54452;SDS011;40363;52.270;10.546;2023-08-24T14:03:05;7.50;;;2.33;;
54452;SDS011;40363;52.270;10.546;2023-08-24T14:05:31;4.60;;;1.70;;
54452;SDS011;40363;52.270;10.546;2023-08-24T14:07:58;4.40;;;1.85;;
54452;SDS011;40363;52.270;10.546;2023-08-24T14:10:24;2.78;;;1.65;;
54452;SDS011;40363;52.270;10.546;2023-08-24T14:12:52;4.47;;;1.65;;
54452;SDS011;40363;52.270;10.546;2023-08-24T14:15:19;6.13;;;1.52;;
54452;SDS011;40363;52.270;10.546;2023-08-24T14:17:46;5.70;;;2.33;;
54452;SDS011;40363;52.270;10.546;2023-08-24T14:20:12;5.38;;;1.80;;
54452;SDS011;40363;52.270;10.546;2023-08-24T14:22:39;4.25;;;1.80;;
54452;SDS011;40363;52.270;10.546;2023-08-24T14:25:06;2.50;;;1.75;;
54452;SDS011;40363;52.270;10.546;2023-08-24T14:27:33;4.05;;;2.38;;
54452;SDS011;40363;52.270;10.546;2023-08-24T14:30:01;5.38;;;1.83;;
54452;SDS011;40363;52.270;10.546;2023-08-24T14:32:27;2.38;;;1.30;;
54452;SDS011;40363;52.270;10.546;2023-08-24T14:34:54;6.43;;;1.80;;
54452;SDS011;40363;52.270;10.546;2023-08-24T14:37:21;2.58;;;1.60;;
54452;SDS011;40363;52.270;10.546;2023-08-24T14:39:48;1.70;;;1.20;;
54452;SDS011;40363;52.270;10.546;2023-08-24T14:42:15;3.45;;;1.60;;
54452;SDS011;40363;52.270;10.546;2023-08-24T14:44:41;6.80;;;1.85;;
54452;SDS011;40363;52.270;10.546;2023-08-24T14:47:09;3.10;;;2.20;;
54452;SDS011;40363;52.270;10.546;2023-08-24T14:49:36;2.53;;;1.88;;